Time;durP1;ratioP1;P1;durP2;ratioP2;P2;SDS_P1;SDS_P2;PMS_P1;PMS_P2;Temp;Humidity;BMP_temperature;BMP_pressure;BME280_temperature;BME280_humidity;BME280_pressure;Samples;Min_cycle;Max_cycle;Signal;HPM_P1;HPM_P2
2021/06/14 00:01:23;;;;;;;20.35;18.48;;;;;;;24.46;72.47;100679.22;4791520;30;20051;-78
2021/06/14 00:04:27;;;;;;;20.40;18.60;;;;;;;24.44;72.20;100680.50;4791653;30;20051;-78
2021/06/14 00:07:31;;;;;;;20.40;18.45;;;;;;;24.41;72.73;100684.50;4780603;30;20059;-75
2021/06/14 00:10:37;;;;;;;21.98;19.90;;;;;;;24.30;73.04;100696.13;4791061;30;20396;-74
2021/06/14 00:13:41;;;;;;;20.98;19.08;;;;;;;24.24;72.70;100690.69;4791282;30;20043;-74
2021/06/14 00:16:46;;;;;;;21.15;18.80;;;;;;;24.13;73.36;100692.16;4791160;30;20044;-74
2021/06/14 00:19:50;;;;;;;21.73;19.73;;;;;;;24.08;73.71;100700.19;4790934;30;20417;-74
2021/06/14 00:22:55;;;;;;;21.77;19.80;;;;;;;24.05;74.04;100702.50;4790946;29;20063;-77
2021/06/14 00:26:01;;;;;;;22.77;20.67;;;;;;;24.04;74.00;100709.88;4791338;30;20055;-74
2021/06/14 00:29:05;;;;;;;25.25;22.95;;;;;;;23.90;75.54;100708.19;4791326;30;20047;-76
2021/06/14 00:32:10;;;;;;;25.55;23.10;;;;;;;23.85;75.83;100705.25;4790979;30;20047;-77
2021/06/14 00:35:14;;;;;;;25.52;23.15;;;;;;;23.71;76.46;100714.53;4790964;30;20047;-76
2021/06/14 00:38:19;;;;;;;24.92;22.52;;;;;;;23.66;76.65;100711.59;4779793;30;20484;-73
2021/06/14 00:41:23;;;;;;;23.25;21.20;;;;;;;23.67;76.00;100718.78;4779578;30;20396;-74
2021/06/14 00:44:28;;;;;;;23.10;20.73;;;;;;;23.59;76.09;100719.81;4790841;30;20051;-74
2021/06/14 00:47:33;;;;;;;23.20;21.10;;;;;;;23.50;76.30;100718.34;4779389;30;20059;-75
2021/06/14 00:50:41;;;;;;;21.92;19.80;;;;;;;23.42;76.29;100720.44;4790750;30;20051;-75
2021/06/14 00:53:58;;;;;;;21.77;19.75;;;;;;;23.36;76.57;100724.00;4790618;30;20043;-74
2021/06/14 00:57:06;;;;;;;22.33;18.95;;;;;;;23.26;76.65;100738.06;4778963;30;20051;-74
2021/06/14 01:00:11;;;;;;;21.27;19.13;;;;;;;23.08;76.97;100735.09;4790795;30;20043;-74
2021/06/14 01:03:25;;;;;;;20.30;18.38;;;;;;;23.05;77.38;100733.59;4779414;30;20051;-79
2021/06/14 01:06:29;;;;;;;20.73;18.63;;;;;;;23.01;77.39;100734.22;4790416;30;20395;-74
2021/06/14 01:09:33;;;;;;;21.13;19.08;;;;;;;23.01;77.15;100728.75;4779207;30;20400;-77
2021/06/14 01:12:45;;;;;;;20.48;18.08;;;;;;;23.08;76.91;100729.63;4790321;30;20048;-73
2021/06/14 01:16:05;;;;;;;19.53;17.63;;;;;;;23.04;76.59;100731.91;4779411;30;20047;-74
2021/06/14 01:19:35;;;;;;;19.33;17.42;;;;;;;22.99;76.70;100733.56;4790493;30;20476;-74
2021/06/14 01:23:16;;;;;;;17.55;15.88;;;;;;;23.11;76.00;100737.41;4790092;30;20403;-74
2021/06/14 01:26:25;;;;;;;19.90;16.40;;;;;;;23.10;76.09;100732.97;4779085;30;20480;-79
2021/06/14 01:29:33;;;;;;;17.63;15.90;;;;;;;23.14;75.56;100737.84;4790241;30;20056;-76
2021/06/14 01:32:41;;;;;;;16.65;15.05;;;;;;;22.97;76.09;100741.16;4778894;30;20052;-76
2021/06/14 01:35:49;;;;;;;17.75;15.55;;;;;;;22.97;75.52;100739.25;4778378;30;20059;-80
2021/06/14 01:38:56;;;;;;;16.85;15.25;;;;;;;22.97;75.69;100738.41;4790126;30;20064;-77
2021/06/14 01:42:01;;;;;;;17.15;15.45;;;;;;;22.99;75.12;100737.16;4789798;30;20055;-75
2021/06/14 01:45:06;;;;;;;17.42;15.73;;;;;;;22.99;75.71;100730.84;4778817;30;20047;-76
2021/06/14 01:48:12;;;;;;;16.15;14.52;;;;;;;23.06;75.58;100737.19;4789167;30;20052;-75
2021/06/14 01:51:27;;;;;;;17.92;16.10;;;;;;;23.00;75.30;100746.22;4789855;30;20059;-78
2021/06/14 01:54:32;;;;;;;17.13;15.43;;;;;;;22.87;76.02;100735.22;4778612;30;20051;-79
2021/06/14 01:57:43;;;;;;;17.08;15.50;;;;;;;22.82;76.08;100735.84;4789526;30;20055;-75
2021/06/14 02:00:57;;;;;;;21.33;16.83;;;;;;;22.79;76.20;100736.25;4789728;30;20500;-74
2021/06/14 02:04:25;;;;;;;17.25;15.45;;;;;;;22.79;76.08;100727.22;4769787;30;20477;-73
2021/06/14 02:07:26;;;;;;;20.70;17.25;;;;;;;22.88;75.52;100735.03;4763188;30;20056;-74
2021/06/14 02:10:33;;;;;;;18.10;16.27;;;;;;;22.87;75.76;100730.59;4769518;30;20043;-78
2021/06/14 02:13:39;;;;;;;18.38;16.48;;;;;;;22.87;75.74;100730.59;4749084;30;20048;-77
2021/06/14 02:16:49;;;;;;;17.63;16.02;;;;;;;22.80;75.98;100732.47;4758978;30;20055;-79
2021/06/14 02:19:53;;;;;;;21.55;17.10;;;;;;;22.78;76.23;100737.31;4769131;30;20052;-74
2021/06/14 02:23:02;;;;;;;18.63;16.73;;;;;;;22.76;76.16;100731.19;4759124;30;20044;-74
2021/06/14 02:26:07;;;;;;;18.95;17.27;;;;;;;22.79;76.26;100729.94;4769103;30;20055;-78
2021/06/14 02:28:56;;;;;;;18.63;16.83;;;;;;;22.77;76.69;100726.53;4770685;30;20040;-77
2021/06/14 02:32:00;;;;;;;18.70;16.20;;;;;;;22.73;76.81;100734.34;4769238;30;20044;-75
2021/06/14 02:35:07;;;;;;;18.63;16.60;;;;;;;22.52;77.48;100732.50;4768800;30;20044;-77
2021/06/14 02:38:12;;;;;;;18.20;16.30;;;;;;;22.55;77.44;100734.84;4769176;30;20048;-77
2021/06/14 02:41:17;;;;;;;16.88;15.35;;;;;;;22.56;77.51;100733.81;4777628;30;20051;-79
2021/06/14 02:44:24;;;;;;;18.38;16.48;;;;;;;22.59;77.47;100735.31;4788954;30;20047;-74
2021/06/14 02:47:33;;;;;;;17.20;15.50;;;;;;;22.64;76.99;100736.38;4787828;30;20055;-73
2021/06/14 02:50:40;;;;;;;17.63;15.98;;;;;;;22.62;76.88;100732.16;4777634;30;20424;-73
2021/06/14 02:54:03;;;;;;;17.17;15.63;;;;;;;22.71;76.44;100733.69;4777860;30;20051;-79
2021/06/14 02:57:12;;;;;;;17.40;14.48;;;;;;;22.64;76.57;100730.91;4788679;30;20400;-79
2021/06/14 03:00:20;;;;;;;17.70;15.20;;;;;;;22.59;76.51;100727.09;4788728;30;20047;-74
2021/06/14 03:03:25;;;;;;;16.67;14.98;;;;;;;22.62;76.69;100727.53;4788071;29;20040;-73
2021/06/14 03:06:32;;;;;;;17.58;15.77;;;;;;;22.47;76.63;100731.41;4777953;30;20075;-74
2021/06/14 03:09:37;;;;;;;18.00;16.27;;;;;;;22.34;77.36;100732.22;4777567;30;20055;-74
2021/06/14 03:12:41;;;;;;;16.50;14.88;;;;;;;22.11;78.19;100737.09;4788643;30;20047;-74
2021/06/14 03:15:47;;;;;;;15.60;13.98;;;;;;;22.20;77.76;100733.16;4788917;30;20051;-74
2021/06/14 03:18:54;;;;;;;20.10;15.75;;;;;;;22.16;77.34;100736.50;4788654;30;20043;-79
2021/06/14 03:22:04;;;;;;;16.00;13.48;;;;;;;22.22;76.26;100731.06;4788871;30;20055;-73
2021/06/14 03:25:11;;;;;;;13.35;11.95;;;;;;;22.08;75.54;100725.72;4788603;30;20047;-74
2021/06/14 03:28:20;;;;;;;12.27;11.10;;;;;;;22.07;75.09;100734.97;4788613;30;20048;-76
2021/06/14 03:31:30;;;;;;;14.40;10.38;;;;;;;22.07;74.66;100746.78;4788551;30;20051;-74
2021/06/14 03:34:36;;;;;;;12.25;10.23;;;;;;;21.92;74.86;100751.50;4788520;30;20055;-73
2021/06/14 03:37:40;;;;;;;13.75;10.68;;;;;;;21.86;74.66;100753.13;4788525;30;20051;-77
2021/06/14 03:40:44;;;;;;;18.20;9.90;;;;;;;21.85;75.02;100739.66;4788473;30;20051;-74
2021/06/14 03:43:49;;;;;;;11.05;9.10;;;;;;;21.92;74.42;100733.16;4788412;30;20504;-82
2021/06/14 03:46:53;;;;;;;12.55;9.38;;;;;;;22.01;74.10;100736.63;4788409;30;20062;-77
2021/06/14 03:49:58;;;;;;;13.95;10.30;;;;;;;21.97;74.15;100740.81;4788182;30;20055;-75
2021/06/14 03:53:03;;;;;;;13.43;12.02;;;;;;;22.00;74.93;100740.38;4788633;30;20055;-74
2021/06/14 03:56:09;;;;;;;13.23;10.60;;;;;;;22.11;74.57;100739.84;4788100;30;20051;-73
2021/06/14 03:59:14;;;;;;;10.98;9.27;;;;;;;22.24;74.03;100748.16;4789981;29;20063;-74
2021/06/14 04:02:18;;;;;;;8.85;7.90;;;;;;;22.28;72.89;100752.16;4791198;30;20119;-82
2021/06/14 04:05:23;;;;;;;13.68;7.95;;;;;;;22.31;72.40;100759.97;4791450;30;20059;-75
2021/06/14 04:08:27;;;;;;;11.82;7.70;;;;;;;22.06;71.49;100755.16;4791387;30;20054;-74
2021/06/14 04:11:31;;;;;;;8.35;7.25;;;;;;;21.95;71.94;100760.13;4791365;30;20052;-74
2021/06/14 04:14:38;;;;;;;14.23;8.00;;;;;;;21.79;72.09;100756.81;4780147;30;20059;-74
2021/06/14 04:17:42;;;;;;;9.60;7.45;;;;;;;21.78;72.38;100763.31;4779975;30;20058;-74
2021/06/14 04:20:46;;;;;;;10.52;7.53;;;;;;;21.76;72.07;100760.78;4791147;30;20058;-74
2021/06/14 04:23:51;;;;;;;10.30;6.10;;;;;;;21.69;71.67;100769.97;4791124;30;20047;-73
2021/06/14 04:26:55;;;;;;;7.82;6.78;;;;;;;21.72;71.81;100764.97;4791140;30;20054;-76
2021/06/14 04:29:59;;;;;;;7.28;6.30;;;;;;;21.72;71.96;100764.09;4791046;30;20054;-74
2021/06/14 04:33:04;;;;;;;10.05;6.13;;;;;;;21.70;72.04;100767.00;4791875;30;20054;-76
2021/06/14 04:36:09;;;;;;;7.88;5.60;;;;;;;21.78;71.26;100775.09;4779891;30;20465;-75
2021/06/14 04:39:13;;;;;;;6.68;5.50;;;;;;;21.86;70.82;100771.41;4790943;30;20058;-79
2021/06/14 04:42:17;;;;;;;6.43;5.30;;;;;;;22.05;70.45;100767.97;4790843;30;20055;-74
2021/06/14 04:45:23;;;;;;;7.00;5.18;;;;;;;22.28;69.62;100768.56;4791085;30;20058;-77
2021/06/14 04:48:27;;;;;;;7.82;5.60;;;;;;;22.45;68.74;100764.47;4790136;30;20078;-73
2021/06/14 04:51:32;;;;;;;6.00;5.40;;;;;;;22.56;68.42;100768.53;4790654;30;20070;-74
2021/06/14 04:54:36;;;;;;;8.20;5.32;;;;;;;22.79;67.82;100768.28;4790673;30;20069;-77
2021/06/14 04:57:41;;;;;;;7.32;5.72;;;;;;;22.94;67.01;100764.31;4790253;30;20082;-74
2021/06/14 05:00:45;;;;;;;9.43;5.72;;;;;;;22.96;66.84;100770.41;4790540;30;20054;-74
2021/06/14 05:03:50;;;;;;;11.63;5.43;;;;;;;23.04;66.67;100759.28;4790724;30;20058;-74
2021/06/14 05:06:54;;;;;;;8.45;5.43;;;;;;;23.38;65.88;100772.06;4790448;30;20078;-74
2021/06/14 05:09:59;;;;;;;8.15;5.55;;;;;;;23.88;64.41;100762.41;4789379;29;20058;-74
2021/06/14 05:13:04;;;;;;;10.25;5.82;;;;;;;24.56;62.49;100766.59;4790332;30;20750;-74
2021/06/14 05:16:08;;;;;;;8.02;6.15;;;;;;;24.93;61.21;100771.34;4790269;30;20068;-74
2021/06/14 05:19:12;;;;;;;8.73;6.65;;;;;;;25.56;58.64;100766.78;4779234;30;20058;-76
2021/06/14 05:22:17;;;;;;;9.75;6.60;;;;;;;26.04;57.46;100763.44;4779038;30;20077;-78
2021/06/14 05:25:21;;;;;;;11.15;7.20;;;;;;;26.59;56.72;100764.41;4779008;30;20400;-76
2021/06/14 05:28:25;;;;;;;12.23;11.07;;;;;;;26.83;57.95;100760.75;4790149;30;20060;-84
2021/06/14 05:31:29;;;;;;;14.77;11.57;;;;;;;26.99;57.80;100762.88;4789981;30;20055;-74
2021/06/14 05:34:34;;;;;;;11.52;10.43;;;;;;;27.91;55.28;100758.78;4789962;30;20051;-73
2021/06/14 05:37:38;;;;;;;11.57;10.38;;;;;;;28.29;54.14;100761.97;4789837;30;20055;-73
2021/06/14 05:40:42;;;;;;;10.05;9.05;;;;;;;29.13;50.95;100753.06;4768617;30;20051;-74
2021/06/14 05:43:46;;;;;;;11.68;8.43;;;;;;;29.76;48.87;100755.66;4789508;30;20050;-73
2021/06/14 05:46:51;;;;;;;10.85;9.77;;;;;;;29.78;49.23;100747.97;4789950;30;20063;-73
2021/06/14 05:49:55;;;;;;;10.60;9.55;;;;;;;29.67;49.57;100753.53;4789595;30;20051;-73
2021/06/14 05:52:59;;;;;;;12.52;9.57;;;;;;;29.43;50.41;100756.44;4789646;30;20058;-74
2021/06/14 05:56:03;;;;;;;13.35;12.02;;;;;;;29.31;50.43;100765.88;4789545;30;20403;-73
2021/06/14 05:59:08;;;;;;;25.30;22.60;;;;;;;30.02;49.10;100762.50;4789715;30;20059;-73
2021/06/14 06:02:12;;;;;;;15.68;14.05;;;;;;;29.29;51.29;100770.81;4789621;30;20047;-73
2021/06/14 06:05:17;;;;;;;14.05;12.65;;;;;;;28.55;53.71;100769.75;4789227;30;20043;-74
2021/06/14 06:08:21;;;;;;;14.75;13.23;;;;;;;27.79;56.21;100771.72;4789302;30;20039;-74
2021/06/14 06:11:25;;;;;;;14.25;13.02;;;;;;;27.23;57.95;100780.38;4789235;30;20043;-73
2021/06/14 06:14:30;;;;;;;14.85;13.25;;;;;;;26.87;59.73;100781.25;4788827;30;20043;-75
2021/06/14 06:17:34;;;;;;;18.27;15.98;;;;;;;26.04;62.43;100785.47;4789112;30;20051;-75
2021/06/14 06:20:38;;;;;;;16.35;14.75;;;;;;;26.43;61.37;100782.38;4789033;30;20039;-74
2021/06/14 06:23:43;;;;;;;16.90;15.15;;;;;;;27.01;59.73;100780.88;4772932;29;20043;-73
2021/06/14 06:26:47;;;;;;;27.55;24.77;;;;;;;27.40;58.92;100779.53;4781663;30;20039;-73
2021/06/14 06:29:52;;;;;;;27.83;25.13;;;;;;;28.39;56.26;100784.31;4788848;30;20051;-75
2021/06/14 06:32:57;;;;;;;24.27;17.10;;;;;;;30.80;49.66;100776.16;4777825;30;20044;-73
2021/06/14 06:36:02;;;;;;;14.63;12.73;;;;;;;33.98;42.27;100773.75;4788879;30;20043;-73
2021/06/14 06:39:06;;;;;;;12.95;11.40;;;;;;;35.72;39.02;100772.69;4788491;30;20407;-72
2021/06/14 06:42:10;;;;;;;12.48;11.27;;;;;;;37.74;35.71;100771.28;4788552;30;20039;-73
2021/06/14 06:45:15;;;;;;;15.13;11.98;;;;;;;37.32;35.04;100774.13;4787411;30;20054;-74
2021/06/14 06:48:19;;;;;;;15.45;12.75;;;;;;;37.47;34.71;100773.09;4788018;30;20430;-74
2021/06/14 06:51:24;;;;;;;15.80;11.60;;;;;;;38.22;33.76;100771.88;4788891;30;20051;-73
2021/06/14 06:54:28;;;;;;;15.45;11.43;;;;;;;37.99;34.62;100777.63;4788811;30;20055;-73
2021/06/14 06:57:33;;;;;;;13.40;11.10;;;;;;;38.56;33.94;100770.72;4788798;30;20055;-72
2021/06/14 07:00:37;;;;;;;15.95;10.45;;;;;;;39.87;31.59;100768.72;4788826;30;20051;-73
2021/06/14 07:03:44;;;;;;;17.90;10.40;;;;;;;39.71;31.42;100773.03;4788584;30;20055;-74
2021/06/14 07:06:48;;;;;;;12.18;10.25;;;;;;;39.25;32.13;100767.66;4788827;30;20047;-80
2021/06/14 07:09:52;;;;;;;10.40;9.00;;;;;;;41.15;29.85;100771.44;4777145;30;20051;-75
2021/06/14 07:12:58;;;;;;;13.38;9.32;;;;;;;41.62;28.96;100777.31;4787023;30;20062;-74
2021/06/14 07:16:03;;;;;;;12.32;8.57;;;;;;;42.20;28.25;100769.19;4785304;30;20054;-75
2021/06/14 07:19:08;;;;;;;12.43;8.93;;;;;;;42.41;28.23;100772.94;4776741;30;20059;-75
2021/06/14 07:22:12;;;;;;;12.20;9.30;;;;;;;43.47;26.65;100774.63;4788638;30;20051;-75
2021/06/14 07:25:17;;;;;;;12.85;8.85;;;;;;;42.13;28.34;100777.31;4775130;30;20058;-74
2021/06/14 07:28:21;;;;;;;9.60;7.95;;;;;;;42.06;28.39;100775.00;4786701;30;20492;-75
2021/06/14 07:31:26;;;;;;;12.35;9.25;;;;;;;41.22;29.36;100777.41;4787089;30;20407;-75
2021/06/14 07:34:31;;;;;;;16.35;8.20;;;;;;;43.24;27.31;100768.44;4788378;30;20074;-80
2021/06/14 07:37:37;;;;;;;11.15;8.50;;;;;;;43.45;26.89;100759.19;4791828;30;20392;-76
2021/06/14 07:40:42;;;;;;;11.02;8.50;;;;;;;43.21;26.69;100762.66;4780794;30;20055;-78
2021/06/14 07:43:47;;;;;;;9.05;8.15;;;;;;;42.83;27.23;100754.19;4791850;30;20051;-77
2021/06/14 07:46:51;;;;;;;11.95;8.40;;;;;;;43.51;26.61;100752.13;4791534;30;20066;-76
2021/06/14 07:49:55;;;;;;;16.30;8.18;;;;;;;43.88;26.06;100753.97;4789984;30;20054;-76
2021/06/14 07:53:01;;;;;;;22.15;20.17;;;;;;;44.32;25.50;100749.56;4791058;30;20043;-76
2021/06/14 07:56:07;;;;;;;14.10;12.70;;;;;;;43.96;26.65;100753.06;4791548;30;20051;-75
2021/06/14 07:59:11;;;;;;;9.02;8.13;;;;;;;44.12;26.10;100744.78;4791504;30;20055;-75
2021/06/14 08:02:19;;;;;;;11.65;7.70;;;;;;;42.91;27.36;100744.06;4791217;30;20059;-76
2021/06/14 08:05:24;;;;;;;10.38;8.75;;;;;;;41.32;29.11;100753.75;4790895;30;20043;-75
2021/06/14 08:08:28;;;;;;;11.13;8.60;;;;;;;39.72;31.00;100752.22;4780281;30;20050;-75
2021/06/14 08:11:35;;;;;;;11.73;9.07;;;;;;;37.65;34.06;100749.84;4791304;30;20055;-75
2021/06/14 08:14:39;;;;;;;9.98;8.55;;;;;;;35.86;37.86;100759.72;4780241;30;20054;-75
2021/06/14 08:17:44;;;;;;;10.73;9.02;;;;;;;34.35;40.50;100748.38;4791160;30;20067;-76
2021/06/14 08:27:15;;;;;;;13.60;11.20;;;;;;;31.84;46.17;100760.16;4791130;30;20047;-75
2021/06/14 08:30:22;;;;;;;15.40;11.15;;;;;;;31.04;48.40;100749.88;4790426;30;20052;-75
2021/06/14 08:33:26;;;;;;;12.10;10.98;;;;;;;31.51;47.44;100756.53;4791211;30;20055;-74
2021/06/14 08:36:31;;;;;;;13.05;10.88;;;;;;;31.55;47.65;100751.31;4790908;30;20055;-75
2021/06/14 08:39:35;;;;;;;14.13;11.60;;;;;;;31.87;47.44;100756.88;4790860;30;20051;-75
2021/06/14 08:42:41;;;;;;;11.82;9.20;;;;;;;31.39;48.46;100744.72;4790825;30;20051;-76
2021/06/14 08:45:47;;;;;;;12.80;11.52;;;;;;;31.36;48.39;100745.22;4789650;29;20058;-75
2021/06/14 08:48:51;;;;;;;14.43;11.07;;;;;;;31.26;49.03;100736.78;4778969;30;20055;-75
2021/06/14 08:51:58;;;;;;;18.10;11.00;;;;;;;31.46;48.59;100738.97;4790585;30;20055;-75
2021/06/14 08:55:09;;;;;;;14.32;10.00;;;;;;;31.34;49.31;100738.25;4790540;30;20043;-75
2021/06/14 08:58:14;;;;;;;17.83;11.05;;;;;;;31.48;48.12;100737.63;4779148;30;20051;-76
2021/06/14 09:01:18;;;;;;;8.68;7.40;;;;;;;32.00;47.81;100734.22;4790377;30;20043;-75
2021/06/14 09:04:23;;;;;;;16.52;11.20;;;;;;;31.51;47.71;100728.78;4790098;30;20051;-75
2021/06/14 09:07:29;;;;;;;13.85;10.00;;;;;;;31.19;48.90;100733.41;4779224;30;20051;-75
2021/06/14 09:10:39;;;;;;;23.75;21.27;;;;;;;30.57;49.64;100734.78;4790059;30;20395;-75
2021/06/14 09:13:43;;;;;;;12.98;10.77;;;;;;;30.29;49.93;100739.38;4790555;30;20052;-75
2021/06/14 09:16:52;;;;;;;13.07;11.77;;;;;;;30.25;50.09;100732.66;4779200;30;20391;-75
2021/06/14 09:19:56;;;;;;;14.55;10.50;;;;;;;30.63;50.43;100736.56;4789946;30;20051;-75
2021/06/14 09:23:08;;;;;;;12.82;11.38;;;;;;;30.54;50.66;100729.78;4790117;30;20055;-75
2021/06/14 09:26:34;;;;;;;13.52;9.90;;;;;;;30.50;49.72;100725.84;4790095;30;20051;-75
2021/06/14 09:29:39;;;;;;;14.30;10.55;;;;;;;30.08;50.36;100720.78;4790034;30;20058;-75
2021/06/14 09:33:09;;;;;;;12.23;9.55;;;;;;;30.19;51.04;100722.63;4789954;30;20404;-75
2021/06/14 09:36:16;;;;;;;14.93;8.27;;;;;;;30.44;51.68;100713.88;4789943;30;20047;-75
2021/06/14 09:39:20;;;;;;;16.73;9.55;;;;;;;30.50;49.74;100715.59;4789742;30;20048;-75
2021/06/14 09:42:27;;;;;;;11.30;10.02;;;;;;;30.43;50.71;100720.50;4789526;30;20066;-76
2021/06/14 09:45:32;;;;;;;12.15;9.65;;;;;;;30.15;50.82;100715.03;4789428;30;20052;-75
2021/06/14 09:48:36;;;;;;;13.18;8.00;;;;;;;30.14;52.23;100717.00;4789164;30;20051;-76
2021/06/14 09:51:49;;;;;;;12.88;8.13;;;;;;;30.54;49.61;100722.28;4789663;30;20062;-75
2021/06/14 09:55:15;;;;;;;11.85;8.73;;;;;;;30.15;49.52;100718.66;4789537;30;20068;-75
2021/06/14 09:58:24;;;;;;;12.93;8.23;;;;;;;30.17;49.77;100721.19;4789449;30;20054;-75
2021/06/14 10:01:32;;;;;;;13.15;8.55;;;;;;;29.95;49.71;100723.88;4789403;30;20047;-75
2021/06/14 10:04:36;;;;;;;11.27;8.05;;;;;;;29.67;51.22;100714.81;4777981;30;20051;-76
2021/06/14 10:07:48;;;;;;;11.98;7.30;;;;;;;30.14;50.06;100708.69;4789349;30;20059;-75
2021/06/14 10:11:19;;;;;;;13.83;7.37;;;;;;;30.14;50.23;100717.00;4789414;30;20480;-76
2021/06/14 10:14:23;;;;;;;13.88;7.30;;;;;;;30.34;48.65;100707.31;4788818;30;20055;-77
2021/06/14 10:17:39;;;;;;;11.55;7.75;;;;;;;29.80;50.40;100714.50;4789337;30;20050;-77
2021/06/14 10:20:43;;;;;;;14.18;7.07;;;;;;;30.05;49.84;100710.19;4789261;30;20055;-77
2021/06/14 10:23:51;;;;;;;17.55;8.05;;;;;;;30.05;49.46;100712.13;4789180;30;20054;-76
2021/06/14 10:26:58;;;;;;;11.02;7.72;;;;;;;29.94;49.37;100708.38;4788915;30;20059;-76
2021/06/14 10:30:06;;;;;;;13.02;7.78;;;;;;;29.79;50.10;100694.28;4789159;30;20076;-76
2021/06/14 10:33:14;;;;;;;10.60;6.78;;;;;;;29.72;49.21;100704.66;4777754;30;20058;-77
2021/06/14 10:36:24;;;;;;;14.82;11.20;;;;;;;29.61;50.38;100697.25;4789039;30;20068;-75
2021/06/14 10:39:29;;;;;;;11.57;8.82;;;;;;;29.62;49.77;100687.88;4788917;30;20047;-75
2021/06/14 10:42:34;;;;;;;11.25;6.63;;;;;;;29.74;50.18;100699.72;4788940;30;20400;-76
2021/06/14 10:45:38;;;;;;;9.13;7.00;;;;;;;29.95;49.63;100687.06;4777935;30;20481;-76
2021/06/14 10:48:45;;;;;;;10.10;6.82;;;;;;;29.88;50.77;100690.00;4788311;30;20411;-76
2021/06/14 10:51:57;;;;;;;11.07;6.85;;;;;;;29.91;49.95;100685.88;4777833;30;20062;-76
2021/06/14 10:55:07;;;;;;;9.83;7.00;;;;;;;29.87;49.73;100682.81;4788815;30;20054;-75
2021/06/14 10:58:19;;;;;;;8.48;6.43;;;;;;;29.71;50.23;100688.28;4788762;30;20304;-74
2021/06/14 11:01:36;;;;;;;8.95;6.10;;;;;;;29.61;50.52;100687.03;4788883;30;20058;-74
2021/06/14 11:04:42;;;;;;;8.82;5.25;;;;;;;29.73;50.35;100677.84;4788812;30;20050;-75
2021/06/14 11:07:46;;;;;;;13.60;5.32;;;;;;;29.80;49.87;100671.03;4777826;29;20411;-75
2021/06/14 11:10:51;;;;;;;9.10;5.50;;;;;;;29.62;49.39;100671.28;4781617;30;20055;-74
2021/06/14 11:13:55;;;;;;;11.00;4.55;;;;;;;29.69;48.99;100666.41;4792381;30;20066;-74
2021/06/14 11:17:15;;;;;;;8.77;5.60;;;;;;;29.67;49.70;100662.22;4792066;30;20051;-76
2021/06/14 11:20:31;;;;;;;10.65;5.50;;;;;;;29.47;48.46;100657.19;4792000;30;20058;-76
2021/06/14 11:23:37;;;;;;;11.05;5.65;;;;;;;29.55;49.30;100659.53;4791414;30;20051;-76
2021/06/14 11:26:42;;;;;;;10.60;5.00;;;;;;;29.68;48.36;100647.31;4792054;30;20392;-76
2021/06/14 11:29:52;;;;;;;10.57;4.32;;;;;;;29.83;47.41;100651.16;4792166;30;20062;-75
2021/06/14 11:32:57;;;;;;;5.88;4.32;;;;;;;29.92;49.02;100649.66;4791420;30;20468;-75
2021/06/14 11:36:13;;;;;;;7.68;4.30;;;;;;;29.92;48.41;100643.28;4773489;30;20071;-75
2021/06/14 11:39:18;;;;;;;8.02;4.53;;;;;;;29.95;47.03;100643.59;4763011;30;20067;-75
2021/06/14 11:42:24;;;;;;;8.63;4.80;;;;;;;29.80;46.95;100635.06;4773991;30;20063;-75
2021/06/14 11:45:31;;;;;;;10.57;4.53;;;;;;;29.86;46.80;100631.28;4773938;30;20392;-78
2021/06/14 11:48:44;;;;;;;8.85;4.25;;;;;;;29.91;46.68;100636.91;4773349;30;20055;-76
2021/06/14 11:51:49;;;;;;;5.32;4.38;;;;;;;29.81;47.06;100630.34;4773842;30;20054;-77
2021/06/14 11:54:59;;;;;;;7.70;4.28;;;;;;;29.88;47.58;100626.31;4773774;30;20100;-75
2021/06/14 11:58:06;;;;;;;9.80;4.70;;;;;;;29.74;46.18;100619.44;4762898;30;20055;-75
2021/06/14 12:01:10;;;;;;;8.27;4.60;;;;;;;29.67;45.31;100617.94;4773654;30;20051;-78
2021/06/14 12:04:22;;;;;;;8.65;4.53;;;;;;;29.76;45.40;100620.03;4773398;30;20050;-76
2021/06/14 12:07:41;;;;;;;5.05;3.88;;;;;;;29.81;45.04;100610.97;4773571;30;20051;-76
2021/06/14 12:10:46;;;;;;;7.15;3.88;;;;;;;29.81;45.90;100609.06;4773304;30;20062;-77
2021/06/14 12:13:51;;;;;;;6.78;3.97;;;;;;;29.84;45.74;100607.72;4773516;30;20063;-78
2021/06/14 12:17:07;;;;;;;5.82;3.60;;;;;;;29.85;45.80;100612.97;4773445;30;20059;-76
2021/06/14 12:20:12;;;;;;;7.50;3.45;;;;;;;29.85;47.02;100607.44;4773101;30;20063;-76
2021/06/14 12:23:17;;;;;;;6.00;3.15;;;;;;;29.89;45.85;100610.56;4773322;30;20054;-76
2021/06/14 12:26:21;;;;;;;5.82;3.67;;;;;;;29.89;43.90;100599.47;4773278;30;20059;-75
2021/06/14 12:29:25;;;;;;;5.78;3.63;;;;;;;29.88;45.41;100597.78;4773193;30;20062;-79
2021/06/14 12:32:32;;;;;;;11.38;3.60;;;;;;;29.83;44.77;100590.25;4773129;30;20055;-75
2021/06/14 12:35:38;;;;;;;5.90;3.33;;;;;;;29.76;45.55;100588.72;4772952;30;20059;-76
2021/06/14 12:38:53;;;;;;;7.03;3.20;;;;;;;29.75;45.20;100582.34;4772975;30;20047;-75
2021/06/14 12:41:58;;;;;;;8.13;3.72;;;;;;;29.90;45.49;100592.88;4772923;30;20075;-75
2021/06/14 12:45:06;;;;;;;9.82;3.75;;;;;;;29.97;44.98;100585.22;4772934;30;20495;-76
2021/06/14 12:48:16;;;;;;;6.85;3.15;;;;;;;29.91;44.64;100573.22;4772378;30;20065;-75
2021/06/14 12:51:35;;;;;;;18.65;16.58;;;;;;;30.09;45.38;100570.16;4772439;30;20084;-77
2021/06/14 12:54:40;;;;;;;9.05;4.80;;;;;;;30.05;45.21;100566.22;4771778;30;20409;-75
2021/06/14 12:57:45;;;;;;;8.30;4.05;;;;;;;30.02;44.55;100575.03;4772725;30;20064;-75
2021/06/14 13:00:55;;;;;;;6.95;3.40;;;;;;;29.99;43.82;100577.47;4772576;30;20051;-74
2021/06/14 13:04:00;;;;;;;8.70;3.50;;;;;;;29.98;44.11;100571.09;4772558;30;20070;-75
2021/06/14 13:07:16;;;;;;;16.58;3.95;;;;;;;30.04;43.95;100575.63;4772580;30;20072;-75
2021/06/14 13:10:23;;;;;;;5.80;3.00;;;;;;;30.06;43.80;100569.81;4772392;30;20054;-75
2021/06/14 13:13:31;;;;;;;5.03;2.80;;;;;;;30.13;44.32;100564.91;4772385;30;20074;-75
2021/06/14 13:16:45;;;;;;;9.52;3.05;;;;;;;30.25;43.43;100573.94;4772406;30;20059;-76
2021/06/14 13:19:49;;;;;;;8.80;2.70;;;;;;;30.31;43.40;100570.16;4772247;30;20401;-75
2021/06/14 13:22:54;;;;;;;9.23;2.70;;;;;;;30.33;44.01;100564.34;4772533;30;20401;-76
2021/06/14 13:26:00;;;;;;;7.05;2.55;;;;;;;30.46;43.07;100559.28;4772490;30;20054;-76
2021/06/14 13:29:15;;;;;;;6.88;2.97;;;;;;;30.46;41.98;100563.97;4772204;30;20404;-77
2021/06/14 13:32:30;;;;;;;4.57;2.50;;;;;;;30.43;42.08;100554.25;4771337;30;20055;-76
2021/06/14 13:35:35;;;;;;;4.88;2.80;;;;;;;30.26;41.54;100559.84;4771963;30;20082;-75
2021/06/14 13:38:41;;;;;;;4.40;2.53;;;;;;;30.29;42.53;100548.22;4771911;30;20054;-75
2021/06/14 13:41:48;;;;;;;7.38;2.88;;;;;;;30.27;42.51;100542.13;4772150;30;20054;-77
2021/06/14 13:44:53;;;;;;;6.57;2.58;;;;;;;30.23;42.42;100540.13;4772132;30;20055;-75
2021/06/14 13:48:03;;;;;;;8.07;2.65;;;;;;;30.49;43.15;100538.53;4758543;30;20062;-75
2021/06/14 13:51:19;;;;;;;9.57;3.83;;;;;;;30.50;43.10;100531.88;4771753;30;20062;-75
2021/06/14 13:54:23;;;;;;;8.73;2.95;;;;;;;30.40;42.23;100528.97;4771507;30;20129;-75
2021/06/14 13:57:28;;;;;;;5.95;2.60;;;;;;;30.46;42.12;100526.03;4771671;30;20063;-75
2021/06/14 14:00:32;;;;;;;5.28;2.78;;;;;;;30.31;42.63;100516.66;4771298;30;20062;-78
2021/06/14 14:03:37;;;;;;;6.00;2.53;;;;;;;30.28;42.44;100513.31;4771645;30;20059;-75
2021/06/14 14:06:42;;;;;;;5.85;2.70;;;;;;;30.27;43.03;100516.34;4771830;30;20059;-75
2021/06/14 14:09:46;;;;;;;6.45;2.38;;;;;;;30.38;43.35;100511.78;4771550;30;20422;-75
2021/06/14 14:12:51;;;;;;;5.55;2.60;;;;;;;30.51;42.12;100512.22;4771606;30;20054;-75
2021/06/14 14:15:55;;;;;;;6.55;2.75;;;;;;;30.47;42.76;100505.50;4771506;30;20063;-77
2021/06/14 14:19:15;;;;;;;5.25;2.65;;;;;;;30.26;42.82;100501.69;4770597;30;20082;-75
2021/06/14 14:22:19;;;;;;;9.13;2.90;;;;;;;30.33;43.32;100504.22;4771382;30;20058;-75
2021/06/14 14:25:39;;;;;;;6.68;2.83;;;;;;;30.27;43.36;100500.56;4770510;30;20400;-75